Wetterdaten: Freitag, 20.07.2012
Datum Zeit Temperatur Luftfeuchte Regen Wind Richtung Richtung Taupunkt Windchill Windben
20.07.2012 00:00 14,7 C 87 % 0,0 l/m 0,0 km/h (0 Bft) N-NO 22 12,6 C 14,6 C 0,0 km/h (0 Bft)
20.07.2012 00:05 14,7 C 83 % 0,0 l/m 0,0 km/h (0 Bft) N 360 11,8 C 14,6 C 0,0 km/h (0 Bft)
20.07.2012 00:10 14,5 C 84 % 0,0 l/m 0,0 km/h (0 Bft) NO 45 11,8 C 14,3 C 0,0 km/h (0 Bft)
20.07.2012 00:15 14,4 C 85 % 0,0 l/m 0,0 km/h (0 Bft) O-SO 112 11,9 C 14,3 C 0,0 km/h (0 Bft)
20.07.2012 00:20 14,4 C 85 % 0,0 l/m 0,0 km/h (0 Bft) O-SO 112 11,9 C 14,2 C 0,0 km/h (0 Bft)
20.07.2012 00:25 14,4 C 85 % 0,0 l/m 0,2 km/h (0 Bft) N 360 11,9 C 14,2 C 0,0 km/h (0 Bft)
20.07.2012 00:30 14,4 C 85 % 0,0 l/m 0,2 km/h (0 Bft) N-NW 337 11,9 C 14,1 C 1,8 km/h (1 Bft)
20.07.2012 00:35 14,3 C 85 % 0,0 l/m 0,2 km/h (0 Bft) N 360 11,8 C 14,1 C 0,0 km/h (0 Bft)
20.07.2012 00:40 14,2 C 85 % 0,0 l/m 0,0 km/h (0 Bft) NO 45 11,7 C 14,1 C 0,0 km/h (0 Bft)
20.07.2012 00:45 14,2 C 84 % 0,0 l/m 0,0 km/h (0 Bft) N-NO 22 11,5 C 14,0 C 0,0 km/h (0 Bft)
20.07.2012 00:50 14,3 C 84 % 0,0 l/m 0,0 km/h (0 Bft) NO 45 11,6 C 14,0 C 0,0 km/h (0 Bft)
20.07.2012 00:55 14,2 C 84 % 0,0 l/m 0,0 km/h (0 Bft) N-NO 22 11,5 C 13,9 C 0,0 km/h (0 Bft)
20.07.2012 01:00 14,3 C 84 % 0,0 l/m 0,0 km/h (0 Bft) NO 45 11,6 C 13,9 C 0,0 km/h (0 Bft)
20.07.2012 01:05 14,1 C 84 % 0,0 l/m 0,0 km/h (0 Bft) S 180 11,4 C 13,9 C 0,0 km/h (0 Bft)
20.07.2012 01:10 13,9 C 85 % 0,0 l/m 0,0 km/h (0 Bft) N 360 11,4 C 13,8 C 0,0 km/h (0 Bft)
20.07.2012 01:15 13,9 C 85 % 0,0 l/m 0,2 km/h (0 Bft) NW 315 11,4 C 13,7 C 0,0 km/h (0 Bft)
20.07.2012 01:20 13,9 C 85 % 0,0 l/m 0,0 km/h (0 Bft) N-NO 22 11,4 C 13,7 C 0,0 km/h (0 Bft)
20.07.2012 01:25 13,9 C 85 % 0,0 l/m 0,0 km/h (0 Bft) N 360 11,4 C 13,6 C 0,0 km/h (0 Bft)
20.07.2012 01:30 13,7 C 84 % 0,0 l/m 0,0 km/h (0 Bft) O-NO 67 11,0 C 13,5 C 0,0 km/h (0 Bft)
20.07.2012 01:35 13,7 C 84 % 0,0 l/m 0,0 km/h (0 Bft) NO 45 11,0 C 13,4 C 0,0 km/h (0 Bft)
20.07.2012 01:40 13,7 C 84 % 0,0 l/m 0,0 km/h (0 Bft) O 90 11,0 C 13,4 C 0,0 km/h (0 Bft)
20.07.2012 01:45 13,9 C 82 % 0,0 l/m 0,2 km/h (0 Bft) N 360 10,9 C 13,6 C 1,6 km/h (1 Bft)
20.07.2012 01:50 13,9 C 82 % 0,0 l/m 0,5 km/h (0 Bft) S 180 10,9 C 13,7 C 2,1 km/h (1 Bft)
20.07.2012 01:55 13,9 C 82 % 0,0 l/m 0,3 km/h (0 Bft) NO 45 10,9 C 13,8 C 0,0 km/h (0 Bft)
20.07.2012 02:00 13,8 C 81 % 0,0 l/m 0,0 km/h (0 Bft) N-NW 337 10,6 C 13,7 C 3,5 km/h (1 Bft)
20.07.2012 02:05 13,9 C 81 % 0,0 l/m 0,2 km/h (0 Bft) N 360 10,7 C 13,7 C 0,0 km/h (0 Bft)
20.07.2012 02:10 13,9 C 79 % 0,0 l/m 0,2 km/h (0 Bft) N-NO 22 10,3 C 13,7 C 1,6 km/h (1 Bft)
20.07.2012 02:15 13,8 C 80 % 0,0 l/m 0,2 km/h (0 Bft) N 360 10,4 C 13,7 C 0,0 km/h (0 Bft)
20.07.2012 02:20 13,7 C 80 % 0,0 l/m 0,2 km/h (0 Bft) N 360 10,3 C 13,7 C 0,0 km/h (0 Bft)
20.07.2012 02:25 13,7 C 80 % 0,0 l/m 0,2 km/h (0 Bft) N-NO 22 10,3 C 13,6 C 0,0 km/h (0 Bft)
20.07.2012 02:30 13,7 C 80 % 0,0 l/m 0,0 km/h (0 Bft) N 360 10,3 C 13,6 C 0,0 km/h (0 Bft)
20.07.2012 02:35 13,7 C 81 % 0,0 l/m 0,0 km/h (0 Bft) N 360 10,5 C 13,6 C 1,8 km/h (1 Bft)
20.07.2012 02:40 13,8 C 81 % 0,0 l/m 0,2 km/h (0 Bft) N 360 10,6 C 13,6 C 0,0 km/h (0 Bft)
20.07.2012 02:45 13,6 C 81 % 0,0 l/m 0,2 km/h (0 Bft) S 180 10,4 C 13,5 C 0,0 km/h (0 Bft)
20.07.2012 02:50 13,6 C 81 % 0,0 l/m 0,3 km/h (0 Bft) O-SO 112 10,4 C 13,5 C 1,8 km/h (1 Bft)
20.07.2012 02:55 13,3 C 83 % 0,0 l/m 0,6 km/h (0 Bft) N 360 10,5 C 13,3 C 0,0 km/h (0 Bft)
20.07.2012 03:00 13,1 C 83 % 0,0 l/m 0,5 km/h (0 Bft) N-NW 337 10,3 C 13,1 C 0,0 km/h (0 Bft)
20.07.2012 03:05 12,9 C 84 % 0,0 l/m 0,0 km/h (0 Bft) N-NO 22 10,3 C 12,8 C 0,0 km/h (0 Bft)
20.07.2012 03:10 13,1 C 82 % 0,0 l/m 0,2 km/h (0 Bft) N 360 10,1 C 12,7 C 1,9 km/h (1 Bft)
20.07.2012 03:15 12,9 C 82 % 0,0 l/m 0,2 km/h (0 Bft) O 90 9,9 C 12,8 C 0,0 km/h (0 Bft)
20.07.2012 03:20 12,7 C 82 % 0,0 l/m 0,2 km/h (0 Bft) N 360 9,7 C 12,7 C 0,0 km/h (0 Bft)
20.07.2012 03:25 12,8 C 81 % 0,0 l/m 0,0 km/h (0 Bft) O-SO 112 9,6 C 12,6 C 0,0 km/h (0 Bft)
20.07.2012 03:30 13,0 C 80 % 0,0 l/m 0,0 km/h (0 Bft) NO 45 9,6 C 12,7 C 0,0 km/h (0 Bft)
20.07.2012 03:35 13,0 C 80 % 0,0 l/m 0,0 km/h (0 Bft) W-NW 292 9,6 C 12,9 C 0,0 km/h (0 Bft)
20.07.2012 03:40 12,8 C 81 % 0,0 l/m 0,0 km/h (0 Bft) N-NO 22 9,6 C 12,8 C 0,0 km/h (0 Bft)
20.07.2012 03:45 12,8 C 82 % 0,0 l/m 0,0 km/h (0 Bft) N 360 9,8 C 12,7 C 0,0 km/h (0 Bft)
20.07.2012 03:50 12,8 C 82 % 0,0 l/m 0,0 km/h (0 Bft) W 270 9,8 C 12,6 C 0,0 km/h (0 Bft)
20.07.2012 03:55 12,8 C 83 % 0,0 l/m 0,0 km/h (0 Bft) N-NW 337 10,0 C 12,7 C 0,0 km/h (0 Bft)
20.07.2012 04:00 12,9 C 83 % 0,0 l/m 0,0 km/h (0 Bft) N 360 10,1 C 12,7 C 0,0 km/h (0 Bft)
20.07.2012 04:05 13,1 C 81 % 0,0 l/m 0,0 km/h (0 Bft) NO 45 9,9 C 12,9 C 0,0 km/h (0 Bft)
20.07.2012 04:10 13,2 C 81 % 0,0 l/m 0,0 km/h (0 Bft) S 180 10,0 C 13,0 C 0,0 km/h (0 Bft)
20.07.2012 04:15 13,0 C 81 % 0,0 l/m 0,0 km/h (0 Bft) W-SW 247 9,8 C 12,9 C 0,0 km/h (0 Bft)
20.07.2012 04:20 12,8 C 82 % 0,0 l/m 0,0 km/h (0 Bft) SO 135 9,8 C 12,8 C 0,0 km/h (0 Bft)
20.07.2012 04:25 12,8 C 83 % 0,0 l/m 0,0 km/h (0 Bft) W-NW 292 10,0 C 12,6 C 0,0 km/h (0 Bft)
20.07.2012 04:30 13,0 C 82 % 0,0 l/m 0,3 km/h (0 Bft) N 360 10,0 C 12,7 C 4,8 km/h (1 Bft)
20.07.2012 04:35 13,1 C 81 % 0,0 l/m 0,6 km/h (0 Bft) N-NW 337 9,9 C 12,7 C 2,1 km/h (1 Bft)
20.07.2012 04:40 13,1 C 81 % 0,0 l/m 1,0 km/h (0 Bft) N 360 9,9 C 12,7 C 2,6 km/h (1 Bft)
20.07.2012 04:45 13,1 C 81 % 0,0 l/m 1,1 km/h (1 Bft) W 270 9,9 C 12,7 C 2,4 km/h (1 Bft)
20.07.2012 04:50 12,9 C 82 % 0,0 l/m 1,3 km/h (1 Bft) W-SW 247 9,9 C 12,7 C 3,9 km/h (1 Bft)
20.07.2012 04:55 12,6 C 83 % 0,0 l/m 1,8 km/h (1 Bft) W-NW 292 9,8 C 12,5 C 4,2 km/h (1 Bft)
20.07.2012 05:00 12,4 C 83 % 0,0 l/m 2,3 km/h (1 Bft) N-NW 337 9,6 C 12,4 C 0,0 km/h (0 Bft)
20.07.2012 05:05 12,3 C 84 % 0,0 l/m 2,1 km/h (1 Bft) N-NW 337 9,7 C 12,2 C 3,1 km/h (1 Bft)
20.07.2012 05:10 12,3 C 84 % 0,0 l/m 1,9 km/h (1 Bft) N 360 9,7 C 12,1 C 5,0 km/h (1 Bft)
20.07.2012 05:15 12,1 C 84 % 0,0 l/m 2,7 km/h (1 Bft) W-SW 247 9,5 C 11,9 C 6,6 km/h (2 Bft)
20.07.2012 05:20 12,1 C 84 % 0,0 l/m 3,4 km/h (1 Bft) W-NW 292 9,5 C 11,9 C 7,7 km/h (2 Bft)
20.07.2012 05:25 11,8 C 85 % 0,0 l/m 3,2 km/h (1 Bft) N 360 9,4 C 11,7 C 5,6 km/h (1 Bft)
20.07.2012 05:30 11,8 C 85 % 0,0 l/m 2,3 km/h (1 Bft) N 360 9,4 C 11,6 C 2,3 km/h (1 Bft)
20.07.2012 05:35 11,9 C 85 % 0,0 l/m 2,1 km/h (1 Bft) W 270 9,5 C 11,7 C 5,1 km/h (1 Bft)
20.07.2012 05:40 11,9 C 86 % 0,0 l/m 2,3 km/h (1 Bft) N-NW 337 9,6 C 11,7 C 2,1 km/h (1 Bft)
20.07.2012 05:45 11,7 C 85 % 0,0 l/m 1,6 km/h (1 Bft) N-NO 22 9,3 C 11,5 C 0,0 km/h (0 Bft)
20.07.2012 05:50 11,8 C 86 % 0,0 l/m 0,8 km/h (0 Bft) N-NO 22 9,5 C 11,5 C 0,0 km/h (0 Bft)
20.07.2012 05:55 11,8 C 85 % 0,0 l/m 0,5 km/h (0 Bft) N 360 9,4 C 11,5 C 0,0 km/h (0 Bft)
20.07.2012 06:00 11,8 C 85 % 0,0 l/m 0,2 km/h (0 Bft) N-NO 22 9,4 C 11,5 C 0,0 km/h (0 Bft)
20.07.2012 06:05 11,8 C 85 % 0,0 l/m 0,0 km/h (0 Bft) N-NO 22 9,4 C 11,5 C 0,0 km/h (0 Bft)
20.07.2012 06:10 11,8 C 85 % 0,0 l/m 0,3 km/h (0 Bft) NO 45 9,4 C 11,5 C 1,8 km/h (1 Bft)
20.07.2012 06:15 11,8 C 85 % 0,0 l/m 0,6 km/h (0 Bft) N-NW 337 9,4 C 11,5 C 0,0 km/h (0 Bft)
20.07.2012 06:20 11,7 C 85 % 0,0 l/m 0,3 km/h (0 Bft) O 90 9,3 C 11,5 C 0,0 km/h (0 Bft)
20.07.2012 06:25 11,8 C 85 % 0,0 l/m 0,0 km/h (0 Bft) N-NO 22 9,4 C 11,5 C 1,6 km/h (1 Bft)
20.07.2012 06:30 11,9 C 85 % 0,0 l/m 0,0 km/h (0 Bft) S 180 9,5 C 11,6 C 0,0 km/h (0 Bft)
20.07.2012 06:35 12,1 C 85 % 0,0 l/m 0,0 km/h (0 Bft) O-SO 112 9,7 C 11,8 C 0,0 km/h (0 Bft)
20.07.2012 06:40 12,2 C 85 % 0,0 l/m 0,0 km/h (0 Bft) S 180 9,8 C 11,9 C 0,0 km/h (0 Bft)
20.07.2012 06:45 12,3 C 85 % 0,0 l/m 0,2 km/h (0 Bft) S 180 9,9 C 12,1 C 1,8 km/h (1 Bft)
20.07.2012 06:50 12,5 C 85 % 0,0 l/m 0,2 km/h (0 Bft) S 180 10,0 C 12,2 C 0,0 km/h (0 Bft)
20.07.2012 06:55 12,4 C 85 % 0,0 l/m 0,0 km/h (0 Bft) N 360 9,9 C 12,4 C 0,0 km/h (0 Bft)
20.07.2012 07:00 12,5 C 85 % 0,0 l/m 0,0 km/h (0 Bft) N-NO 22 10,0 C 12,4 C 0,0 km/h (0 Bft)
20.07.2012 07:05 12,8 C 85 % 0,0 l/m 0,0 km/h (0 Bft) S 180 10,3 C 12,7 C 0,0 km/h (0 Bft)
20.07.2012 07:10 12,9 C 85 % 0,0 l/m 0,2 km/h (0 Bft) S-SW 202 10,4 C 12,8 C 2,1 km/h (1 Bft)
20.07.2012 07:15 13,0 C 84 % 0,0 l/m 0,3 km/h (0 Bft) NO 45 10,4 C 12,9 C 0,0 km/h (0 Bft)
20.07.2012 07:20 13,0 C 84 % 0,0 l/m 0,2 km/h (0 Bft) S 180 10,4 C 13,0 C 0,0 km/h (0 Bft)
20.07.2012 07:25 13,2 C 83 % 0,0 l/m 0,0 km/h (0 Bft) S 180 10,4 C 13,3 C 0,0 km/h (0 Bft)
20.07.2012 07:30 13,5 C 83 % 0,0 l/m 0,0 km/h (0 Bft) N 360 10,7 C 13,5 C 0,0 km/h (0 Bft)
20.07.2012 07:35 13,6 C 83 % 0,0 l/m 0,0 km/h (0 Bft) S 180 10,8 C 13,7 C 0,0 km/h (0 Bft)
20.07.2012 07:40 13,5 C 82 % 0,0 l/m 0,2 km/h (0 Bft) N-NW 337 10,5 C 13,8 C 0,0 km/h (0 Bft)
20.07.2012 07:45 13,6 C 82 % 0,0 l/m 0,2 km/h (0 Bft) S 180 10,6 C 14,1 C 0,0 km/h (0 Bft)
20.07.2012 07:50 14,1 C 82 % 0,0 l/m 0,0 km/h (0 Bft) S 180 11,1 C 14,3 C 0,0 km/h (0 Bft)
20.07.2012 07:55 14,8 C 79 % 0,0 l/m 0,0 km/h (0 Bft) N 360 11,2 C 15,0 C 0,0 km/h (0 Bft)
20.07.2012 08:00 15,0 C 79 % 0,0 l/m 0,0 km/h (0 Bft) N 360 11,4 C 15,4 C 0,0 km/h (0 Bft)
20.07.2012 08:05 14,8 C 79 % 0,0 l/m 0,2 km/h (0 Bft) S 180 11,2 C 15,6 C 1,8 km/h (1 Bft)
20.07.2012 08:10 15,0 C 79 % 0,0 l/m 0,5 km/h (0 Bft) O 90 11,4 C 15,5 C 0,0 km/h (0 Bft)
20.07.2012 08:15 14,8 C 79 % 0,0 l/m 0,5 km/h (0 Bft) O-NO 67 11,2 C 15,4 C 0,0 km/h (0 Bft)
20.07.2012 08:20 14,8 C 79 % 0,0 l/m 0,5 km/h (0 Bft) S 180 11,2 C 15,3 C 2,3 km/h (1 Bft)
20.07.2012 08:25 14,7 C 79 % 0,0 l/m 0,6 km/h (0 Bft) S 180 11,1 C 15,1 C 0,0 km/h (0 Bft)
20.07.2012 08:30 14,6 C 79 % 0,0 l/m 0,5 km/h (0 Bft) S-SO 157 11,0 C 15,1 C 0,0 km/h (0 Bft)
20.07.2012 08:35 15,0 C 78 % 0,0 l/m 0,2 km/h (0 Bft) O-SO 112 11,2 C 15,4 C 0,0 km/h (0 Bft)
20.07.2012 08:40 14,9 C 78 % 0,0 l/m 0,0 km/h (0 Bft) W-SW 247 11,1 C 15,6 C 0,0 km/h (0 Bft)
20.07.2012 08:45 14,9 C 78 % 0,0 l/m 0,2 km/h (0 Bft) W-NW 292 11,1 C 15,7 C 0,0 km/h (0 Bft)
20.07.2012 08:50 15,0 C 78 % 0,0 l/m 0,2 km/h (0 Bft) W-SW 247 11,2 C 15,8 C 0,0 km/h (0 Bft)
20.07.2012 08:55 15,2 C 78 % 0,0 l/m 0,0 km/h (0 Bft) S 180 11,4 C 16,1 C 0,0 km/h (0 Bft)
20.07.2012 09:00 15,5 C 78 % 0,0 l/m 0,3 km/h (0 Bft) S 180 11,7 C 16,2 C 1,9 km/h (1 Bft)
20.07.2012 09:05 16,0 C 76 % 0,0 l/m 0,6 km/h (0 Bft) SO 135 11,8 C 16,6 C 0,0 km/h (0 Bft)
20.07.2012 09:10 16,1 C 76 % 0,0 l/m 0,6 km/h (0 Bft) N 360 11,9 C 16,9 C 0,0 km/h (0 Bft)
20.07.2012 09:15 16,7 C 75 % 0,0 l/m 0,3 km/h (0 Bft) O 90 12,2 C 17,4 C 0,0 km/h (0 Bft)
20.07.2012 09:20 16,4 C 74 % 0,0 l/m 0,3 km/h (0 Bft) S 180 11,8 C 17,6 C 1,6 km/h (1 Bft)
20.07.2012 09:25 16,6 C 75 % 0,0 l/m 0,3 km/h (0 Bft) W 270 12,1 C 17,5 C 0,0 km/h (0 Bft)
20.07.2012 09:30 16,8 C 73 % 0,0 l/m 0,3 km/h (0 Bft) S 180 11,9 C 17,7 C 0,0 km/h (0 Bft)
20.07.2012 09:35 17,6 C 73 % 0,0 l/m 0,2 km/h (0 Bft) NO 45 12,8 C 18,6 C 0,0 km/h (0 Bft)
20.07.2012 09:40 18,3 C 70 % 0,0 l/m 0,0 km/h (0 Bft) O-SO 112 14,2 C 19,3 C 0,0 km/h (0 Bft)
20.07.2012 09:45 18,7 C 62 % 0,0 l/m 0,5 km/h (0 Bft) W-NW 292 11,6 C 21,9 C 1,6 km/h (1 Bft)
20.07.2012 09:50 18,2 C 67 % 0,0 l/m 0,8 km/h (0 Bft) N-NW 337 12,0 C 21,4 C 3,7 km/h (1 Bft)
20.07.2012 09:55 18,8 C 64 % 0,0 l/m 1,8 km/h (1 Bft) S-SW 202 12,2 C 21,1 C 2,9 km/h (1 Bft)
20.07.2012 10:00 19,0 C 65 % 0,0 l/m 2,1 km/h (1 Bft) S 180 12,3 C 21,1 C 3,4 km/h (1 Bft)
20.07.2012 10:05 18,8 C 65 % 0,0 l/m 1,8 km/h (1 Bft) N-NW 337 12,1 C 20,9 C 3,1 km/h (1 Bft)
20.07.2012 10:10 19,2 C 65 % 0,0 l/m 1,8 km/h (1 Bft) S 180 12,6 C 20,9 C 0,0 km/h (0 Bft)
20.07.2012 10:15 19,6 C 61 % 0,0 l/m 2,6 km/h (1 Bft) N-NW 337 12,4 C 21,3 C 2,9 km/h (1 Bft)
20.07.2012 10:20 20,4 C 58 % 0,0 l/m 1,9 km/h (1 Bft) S-SW 202 13,3 C 22,5 C 0,0 km/h (0 Bft)
20.07.2012 10:25 21,2 C 51 % 0,0 l/m 0,8 km/h (0 Bft) NO 45 12,8 C 25,2 C 0,0 km/h (0 Bft)
20.07.2012 10:30 21,6 C 52 % 0,0 l/m 1,1 km/h (1 Bft) NW 315 11,9 C 26,3 C 0,0 km/h (0 Bft)
20.07.2012 10:35 21,6 C 55 % 0,0 l/m 2,9 km/h (1 Bft) S-SW 202 12,4 C 25,8 C 2,3 km/h (1 Bft)
20.07.2012 10:40 21,6 C 56 % 0,0 l/m 3,7 km/h (1 Bft) S-SO 157 12,4 C 25,1 C 3,4 km/h (1 Bft)
20.07.2012 10:45 21,5 C 58 % 0,0 l/m 3,1 km/h (1 Bft) O-SO 112 12,9 C 24,1 C 2,6 km/h (1 Bft)
20.07.2012 10:50 21,0 C 56 % 0,0 l/m 2,9 km/h (1 Bft) N 360 11,9 C 23,5 C 5,3 km/h (1 Bft)
20.07.2012 10:55 20,0 C 57 % 0,0 l/m 3,1 km/h (1 Bft) S-SO 157 11,2 C 22,6 C 0,0 km/h (0 Bft)
20.07.2012 11:00 20,5 C 61 % 0,0 l/m 2,6 km/h (1 Bft) NO 45 12,7 C 22,4 C 3,4 km/h (1 Bft)
20.07.2012 11:05 20,4 C 60 % 0,0 l/m 1,9 km/h (1 Bft) S 180 12,4 C 22,4 C 2,6 km/h (1 Bft)
20.07.2012 11:10 20,3 C 59 % 0,0 l/m 2,4 km/h (1 Bft) SO 135 12,0 C 22,2 C 5,3 km/h (1 Bft)
20.07.2012 11:15 19,9 C 61 % 0,0 l/m 2,9 km/h (1 Bft) S-SO 157 12,2 C 21,8 C 4,8 km/h (1 Bft)
20.07.2012 11:20 20,0 C 61 % 0,0 l/m 3,4 km/h (1 Bft) W-SW 247 12,2 C 21,4 C 4,0 km/h (1 Bft)
20.07.2012 11:25 20,8 C 59 % 0,0 l/m 3,4 km/h (1 Bft) O-SO 112 12,5 C 22,0 C 3,1 km/h (1 Bft)
20.07.2012 11:30 21,2 C 59 % 0,0 l/m 4,0 km/h (1 Bft) S-SO 157 12,9 C 22,4 C 6,8 km/h (2 Bft)
20.07.2012 11:35 20,6 C 60 % 0,0 l/m 3,2 km/h (1 Bft) W 270 12,6 C 22,4 C 6,0 km/h (2 Bft)
20.07.2012 11:40 20,6 C 60 % 0,0 l/m 3,2 km/h (1 Bft) S-SW 202 12,6 C 22,3 C 8,4 km/h (2 Bft)
20.07.2012 11:45 20,3 C 59 % 0,0 l/m 3,4 km/h (1 Bft) S 180 12,0 C 22,4 C 6,0 km/h (2 Bft)
20.07.2012 11:50 20,7 C 60 % 0,0 l/m 2,7 km/h (1 Bft) O 90 12,7 C 22,8 C 6,9 km/h (2 Bft)
20.07.2012 11:55 20,4 C 59 % 0,0 l/m 3,5 km/h (1 Bft) S 180 12,1 C 22,4 C 5,5 km/h (1 Bft)
20.07.2012 12:00 19,6 C 59 % 0,0 l/m 3,4 km/h (1 Bft) NW 315 11,4 C 21,9 C 2,6 km/h (1 Bft)
20.07.2012 12:05 19,5 C 62 % 0,0 l/m 2,4 km/h (1 Bft) S 180 12,0 C 21,5 C 3,2 km/h (1 Bft)
20.07.2012 12:10 19,3 C 64 % 0,0 l/m 2,1 km/h (1 Bft) W 270 12,3 C 21,3 C 3,9 km/h (1 Bft)
20.07.2012 12:15 18,4 C 67 % 0,0 l/m 1,9 km/h (1 Bft) S 180 12,2 C 20,8 C 4,3 km/h (1 Bft)
20.07.2012 12:20 18,7 C 66 % 0,0 l/m 2,6 km/h (1 Bft) S 180 12,2 C 20,3 C 3,5 km/h (1 Bft)
20.07.2012 12:25 18,5 C 66 % 0,0 l/m 2,7 km/h (1 Bft) NW 315 12,0 C 20,1 C 1,9 km/h (1 Bft)
20.07.2012 12:30 18,5 C 67 % 0,0 l/m 2,3 km/h (1 Bft) SW 225 12,3 C 20,0 C 3,4 km/h (1 Bft)
20.07.2012 12:35 18,5 C 66 % 0,0 l/m 2,7 km/h (1 Bft) W 270 12,0 C 19,7 C 4,3 km/h (1 Bft)
20.07.2012 12:40 18,4 C 67 % 0,0 l/m 2,9 km/h (1 Bft) W-NW 292 12,2 C 19,6 C 0,0 km/h (0 Bft)
20.07.2012 12:45 18,2 C 69 % 0,0 l/m 3,5 km/h (1 Bft) N 360 12,4 C 19,6 C 6,4 km/h (2 Bft)
20.07.2012 12:50 18,0 C 70 % 0,0 l/m 3,4 km/h (1 Bft) W-SW 247 12,4 C 19,3 C 10,6 km/h (2 Bft)
20.07.2012 12:55 17,7 C 70 % 0,0 l/m 3,1 km/h (1 Bft) N 360 12,2 C 18,8 C 2,6 km/h (1 Bft)
20.07.2012 13:00 17,7 C 71 % 0,0 l/m 2,9 km/h (1 Bft) N-NW 337 12,4 C 18,6 C 3,1 km/h (1 Bft)
20.07.2012 13:05 17,4 C 72 % 0,0 l/m 2,9 km/h (1 Bft) W-NW 292 12,3 C 18,2 C 5,5 km/h (1 Bft)
20.07.2012 13:10 17,2 C 72 % 0,0 l/m 3,4 km/h (1 Bft) W-NW 292 12,1 C 18,0 C 4,3 km/h (1 Bft)
20.07.2012 13:15 17,1 C 73 % 0,0 l/m 3,7 km/h (1 Bft) W-SW 247 12,2 C 17,8 C 3,2 km/h (1 Bft)
20.07.2012 13:20 17,3 C 73 % 0,0 l/m 3,1 km/h (1 Bft) W 270 12,4 C 17,8 C 3,5 km/h (1 Bft)
20.07.2012 13:25 17,1 C 73 % 0,0 l/m 2,3 km/h (1 Bft) N-NO 22 12,2 C 17,8 C 0,0 km/h (0 Bft)
20.07.2012 13:30 17,1 C 73 % 0,0 l/m 2,1 km/h (1 Bft) W-NW 292 12,2 C 17,8 C 3,2 km/h (1 Bft)
20.07.2012 13:35 17,2 C 73 % 0,0 l/m 1,4 km/h (1 Bft) W-NW 292 12,3 C 17,9 C 4,8 km/h (1 Bft)
20.07.2012 13:40 17,3 C 72 % 0,0 l/m 1,9 km/h (1 Bft) N-NW 337 12,2 C 17,9 C 2,4 km/h (1 Bft)
20.07.2012 13:45 17,3 C 72 % 0,0 l/m 2,1 km/h (1 Bft) N-NO 22 12,2 C 17,9 C 1,9 km/h (1 Bft)
20.07.2012 13:50 17,4 C 72 % 0,0 l/m 1,6 km/h (1 Bft) W 270 12,3 C 18,0 C 0,0 km/h (0 Bft)
20.07.2012 13:55 17,5 C 72 % 0,0 l/m 1,6 km/h (1 Bft) W-SW 247 12,4 C 18,3 C 3,5 km/h (1 Bft)
20.07.2012 14:00 17,3 C 72 % 0,0 l/m 2,3 km/h (1 Bft) W-SW 247 12,2 C 18,2 C 3,9 km/h (1 Bft)
20.07.2012 14:05 17,2 C 72 % 0,0 l/m 3,5 km/h (1 Bft) W 270 12,1 C 17,8 C 5,6 km/h (1 Bft)
20.07.2012 14:10 17,1 C 73 % 0,0 l/m 3,5 km/h (1 Bft) W 270 12,2 C 17,6 C 6,1 km/h (2 Bft)
20.07.2012 14:15 17,0 C 73 % 0,0 l/m 3,7 km/h (1 Bft) W-SW 247 12,1 C 17,4 C 5,8 km/h (2 Bft)
20.07.2012 14:20 16,8 C 74 % 0,0 l/m 3,4 km/h (1 Bft) NW 315 12,1 C 17,3 C 2,7 km/h (1 Bft)
20.07.2012 14:25 16,6 C 74 % 0,0 l/m 3,7 km/h (1 Bft) W-NW 292 11,9 C 17,0 C 8,2 km/h (2 Bft)
20.07.2012 14:30 16,4 C 74 % 0,0 l/m 3,9 km/h (1 Bft) W-SW 247 11,8 C 16,7 C 3,4 km/h (1 Bft)
20.07.2012 14:35 16,3 C 75 % 0,0 l/m 3,4 km/h (1 Bft) S 180 11,9 C 16,5 C 3,4 km/h (1 Bft)
20.07.2012 14:40 16,3 C 75 % 0,0 l/m 2,4 km/h (1 Bft) S 180 11,9 C 16,4 C 2,1 km/h (1 Bft)
20.07.2012 14:45 16,2 C 76 % 0,0 l/m 2,7 km/h (1 Bft) S 180 12,0 C 16,3 C 3,9 km/h (1 Bft)
20.07.2012 14:50 16,2 C 76 % 0,0 l/m 2,1 km/h (1 Bft) S-SW 202 12,0 C 16,2 C 1,8 km/h (1 Bft)
20.07.2012 14:55 16,1 C 76 % 0,0 l/m 2,7 km/h (1 Bft) S-SO 157 11,9 C 16,2 C 4,0 km/h (1 Bft)
20.07.2012 15:00 15,9 C 76 % 0,0 l/m 3,1 km/h (1 Bft) S 180 11,7 C 16,2 C 3,2 km/h (1 Bft)
20.07.2012 15:05 15,8 C 76 % 0,0 l/m 3,9 km/h (1 Bft) S-SW 202 11,6 C 15,9 C 5,0 km/h (1 Bft)
20.07.2012 15:10 15,8 C 76 % 0,0 l/m 3,9 km/h (1 Bft) S 180 11,6 C 15,9 C 4,5 km/h (1 Bft)
20.07.2012 15:15 15,7 C 76 % 0,0 l/m 3,2 km/h (1 Bft) SO 135 11,5 C 15,7 C 0,0 km/h (0 Bft)
20.07.2012 15:20 15,6 C 77 % 0,0 l/m 2,7 km/h (1 Bft) S 180 11,6 C 15,7 C 3,1 km/h (1 Bft)
20.07.2012 15:25 15,6 C 77 % 0,0 l/m 1,9 km/h (1 Bft) S 180 11,6 C 15,5 C 1,8 km/h (1 Bft)
20.07.2012 15:30 15,4 C 78 % 0,0 l/m 2,1 km/h (1 Bft) S 180 11,6 C 15,3 C 3,7 km/h (1 Bft)
20.07.2012 15:35 15,2 C 79 % 0,0 l/m 2,7 km/h (1 Bft) S-SO 157 11,6 C 14,9 C 3,7 km/h (1 Bft)
20.07.2012 15:40 15,0 C 79 % 0,0 l/m 3,5 km/h (1 Bft) S-SO 157 11,4 C 14,7 C 4,3 km/h (1 Bft)
20.07.2012 15:45 14,7 C 81 % 0,0 l/m 3,5 km/h (1 Bft) S-SW 202 11,5 C 14,3 C 3,9 km/h (1 Bft)
20.07.2012 15:50 14,2 C 81 % 0,0 l/m 3,9 km/h (1 Bft) S 180 11,0 C 13,9 C 5,8 km/h (2 Bft)
20.07.2012 15:55 13,7 C 83 % 0,0 l/m 4,5 km/h (1 Bft) S 180 10,9 C 13,4 C 7,1 km/h (2 Bft)
20.07.2012 16:00 13,5 C 84 % 0,0 l/m 4,7 km/h (1 Bft) SO 135 10,8 C 13,1 C 5,8 km/h (2 Bft)
20.07.2012 16:05 13,3 C 87 % 1,4 l/m 3,1 km/h (1 Bft) N-NW 337 11,2 C 13,0 C 1,6 km/h (1 Bft)
20.07.2012 16:10 13,4 C 88 % 0,0 l/m 1,4 km/h (1 Bft) NO 45 11,5 C 13,1 C 0,0 km/h (0 Bft)
20.07.2012 16:15 13,7 C 89 % 0,0 l/m 0,5 km/h (0 Bft) O-NO 67 11,9 C 13,6 C 0,0 km/h (0 Bft)
20.07.2012 16:20 13,8 C 89 % 0,0 l/m 0,0 km/h (0 Bft) N-NO 22 12,0 C 13,7 C 0,0 km/h (0 Bft)
20.07.2012 16:25 14,1 C 90 % 0,0 l/m 0,5 km/h (0 Bft) O-SO 112 12,5 C 13,9 C 3,4 km/h (1 Bft)
20.07.2012 16:30 13,6 C 90 % 0,0 l/m 1,0 km/h (0 Bft) N-NO 22 12,0 C 13,8 C 0,0 km/h (0 Bft)
20.07.2012 16:35 13,5 C 91 % 0,0 l/m 1,0 km/h (0 Bft) N-NW 337 12,1 C 13,7 C 3,5 km/h (1 Bft)
20.07.2012 16:40 13,6 C 91 % 0,0 l/m 1,1 km/h (1 Bft) N-NW 337 12,2 C 13,6 C 0,0 km/h (0 Bft)
20.07.2012 16:45 14,1 C 91 % 0,7 l/m 1,3 km/h (1 Bft) N-NO 22 12,7 C 14,0 C 2,9 km/h (1 Bft)
20.07.2012 16:50 13,9 C 91 % 0,0 l/m 0,3 km/h (0 Bft) NO 45 12,5 C 14,1 C 0,0 km/h (0 Bft)
20.07.2012 16:55 13,7 C 91 % 0,0 l/m 0,3 km/h (0 Bft) N 360 12,3 C 13,8 C 0,0 km/h (0 Bft)
20.07.2012 17:00 13,6 C 92 % 0,0 l/m 0,0 km/h (0 Bft) O-SO 112 12,3 C 13,7 C 0,0 km/h (0 Bft)
20.07.2012 17:05 13,5 C 92 % 0,0 l/m 0,0 km/h (0 Bft) N-NO 22 12,2 C 13,7 C 0,0 km/h (0 Bft)
20.07.2012 17:10 13,5 C 92 % 0,0 l/m 0,5 km/h (0 Bft) O-SO 112 12,2 C 13,6 C 2,1 km/h (1 Bft)
20.07.2012 17:15 13,5 C 92 % 0,0 l/m 0,6 km/h (0 Bft) O-SO 112 12,2 C 13,5 C 0,0 km/h (0 Bft)
20.07.2012 17:20 13,4 C 92 % 0,0 l/m 0,2 km/h (0 Bft) N-NO 22 12,1 C 13,5 C 0,0 km/h (0 Bft)
20.07.2012 17:25 13,3 C 92 % 0,0 l/m 0,0 km/h (0 Bft) O-SO 112 12,0 C 13,6 C 0,0 km/h (0 Bft)
20.07.2012 17:30 13,3 C 92 % 0,0 l/m 0,5 km/h (0 Bft) S 180 12,0 C 13,6 C 4,0 km/h (1 Bft)
20.07.2012 17:35 13,1 C 92 % 0,0 l/m 3,1 km/h (1 Bft) W-NW 292 11,8 C 13,4 C 6,8 km/h (2 Bft)
20.07.2012 17:40 13,0 C 92 % 0,0 l/m 3,9 km/h (1 Bft) W-NW 292 11,7 C 13,3 C 2,6 km/h (1 Bft)
20.07.2012 17:45 13,0 C 92 % 0,0 l/m 2,4 km/h (1 Bft) W-NW 292 11,7 C 13,2 C 3,5 km/h (1 Bft)
20.07.2012 17:50 12,9 C 93 % 0,0 l/m 1,9 km/h (1 Bft) S-SO 157 11,8 C 13,1 C 1,6 km/h (1 Bft)
20.07.2012 17:55 12,8 C 93 % 0,0 l/m 1,1 km/h (1 Bft) W-NW 292 11,7 C 13,0 C 2,9 km/h (1 Bft)
20.07.2012 18:00 12,8 C 94 % 0,0 l/m 1,1 km/h (1 Bft) N 360 11,9 C 12,9 C 3,5 km/h (1 Bft)
20.07.2012 18:05 12,6 C 93 % 0,0 l/m 2,3 km/h (1 Bft) N-NW 337 11,5 C 12,8 C 1,8 km/h (1 Bft)
20.07.2012 18:10 12,6 C 94 % 0,0 l/m 2,6 km/h (1 Bft) N-NW 337 11,7 C 12,6 C 2,1 km/h (1 Bft)
20.07.2012 18:15 12,6 C 94 % 0,0 l/m 1,9 km/h (1 Bft) N 360 11,7 C 12,5 C 2,6 km/h (1 Bft)
20.07.2012 18:20 12,6 C 94 % 0,0 l/m 1,6 km/h (1 Bft) W-NW 292 11,7 C 12,4 C 0,0 km/h (0 Bft)
20.07.2012 18:25 12,5 C 94 % 0,0 l/m 1,8 km/h (1 Bft) N-NW 337 11,6 C 12,3 C 2,9 km/h (1 Bft)
20.07.2012 18:30 12,4 C 94 % 0,0 l/m 1,1 km/h (1 Bft) O-SO 112 11,5 C 12,4 C 0,0 km/h (0 Bft)
20.07.2012 18:35 12,4 C 94 % 0,0 l/m 0,5 km/h (0 Bft) N-NW 337 11,5 C 12,3 C 0,0 km/h (0 Bft)
20.07.2012 18:40 12,4 C 94 % 0,0 l/m 0,2 km/h (0 Bft) W-NW 292 11,5 C 12,2 C 2,1 km/h (1 Bft)
20.07.2012 18:45 12,4 C 94 % 0,7 l/m 0,3 km/h (0 Bft) NW 315 11,5 C 12,2 C 0,0 km/h (0 Bft)
20.07.2012 18:50 12,2 C 94 % 0,0 l/m 0,3 km/h (0 Bft) NO 45 11,3 C 12,2 C 0,0 km/h (0 Bft)
20.07.2012 18:55 12,1 C 94 % 0,7 l/m 0,0 km/h (0 Bft) NO 45 11,2 C 12,2 C 0,0 km/h (0 Bft)
20.07.2012 19:00 12,2 C 94 % 0,0 l/m 0,0 km/h (0 Bft) NW 315 11,3 C 12,2 C 0,0 km/h (0 Bft)
20.07.2012 19:05 12,2 C 94 % 0,7 l/m 0,0 km/h (0 Bft) N-NO 22 11,3 C 12,2 C 0,0 km/h (0 Bft)
20.07.2012 19:10 12,3 C 94 % 0,0 l/m 0,0 km/h (0 Bft) N-NW 337 11,4 C 12,2 C 0,0 km/h (0 Bft)
20.07.2012 19:15 12,4 C 94 % 0,7 l/m 0,5 km/h (0 Bft) N 360 11,5 C 12,3 C 2,1 km/h (1 Bft)
20.07.2012 19:20 12,4 C 94 % 0,0 l/m 0,8 km/h (0 Bft) W-NW 292 11,5 C 12,3 C 0,0 km/h (0 Bft)
20.07.2012 19:25 12,4 C 94 % 0,0 l/m 0,5 km/h (0 Bft) N-NO 22 11,5 C 12,3 C 0,0 km/h (0 Bft)
20.07.2012 19:30 12,4 C 94 % 0,0 l/m 0,2 km/h (0 Bft) SO 135 11,5 C 12,3 C 0,0 km/h (0 Bft)
20.07.2012 19:35 12,4 C 94 % 0,0 l/m 0,2 km/h (0 Bft) O 90 11,5 C 12,3 C 0,0 km/h (0 Bft)
20.07.2012 19:40 12,4 C 94 % 0,0 l/m 0,2 km/h (0 Bft) O-SO 112 11,5 C 12,3 C 0,0 km/h (0 Bft)
20.07.2012 19:45 12,4 C 94 % 0,0 l/m 0,3 km/h (0 Bft) N-NO 22 11,5 C 12,3 C 0,0 km/h (0 Bft)
20.07.2012 19:50 12,4 C 94 % 0,7 l/m 0,3 km/h (0 Bft) O-SO 112 11,5 C 12,3 C 1,6 km/h (1 Bft)
20.07.2012 19:55 12,4 C 94 % 0,0 l/m 0,5 km/h (0 Bft) O-SO 112 11,5 C 12,3 C 2,7 km/h (1 Bft)
20.07.2012 20:00 12,5 C 95 % 0,7 l/m 0,8 km/h (0 Bft) SO 135 11,7 C 12,3 C 0,0 km/h (0 Bft)
20.07.2012 20:05 12,6 C 95 % 0,0 l/m 0,8 km/h (0 Bft) NO 45 11,8 C 12,3 C 0,0 km/h (0 Bft)
20.07.2012 20:10 12,5 C 95 % 0,0 l/m 0,2 km/h (0 Bft) NO 45 11,7 C 12,4 C 0,0 km/h (0 Bft)
20.07.2012 20:15 12,3 C 95 % 0,0 l/m 0,0 km/h (0 Bft) NO 45 11,5 C 12,3 C 0,0 km/h (0 Bft)
20.07.2012 20:20 12,2 C 95 % 0,0 l/m 0,0 km/h (0 Bft) N-NO 22 11,4 C 12,2 C 0,0 km/h (0 Bft)
20.07.2012 20:25 12,2 C 95 % 0,0 l/m 0,0 km/h (0 Bft) NO 45 11,4 C 12,2 C 0,0 km/h (0 Bft)
20.07.2012 20:30 12,2 C 95 % 0,0 l/m 0,0 km/h (0 Bft) NO 45 11,4 C 12,2 C 0,0 km/h (0 Bft)
20.07.2012 20:35 12,2 C 95 % 0,7 l/m 0,0 km/h (0 Bft) N-NO 22 11,4 C 12,1 C 0,0 km/h (0 Bft)
20.07.2012 20:40 12,2 C 95 % 0,0 l/m 0,0 km/h (0 Bft) N-NO 22 11,4 C 12,1 C 0,0 km/h (0 Bft)
20.07.2012 20:45 12,1 C 95 % 0,0 l/m 0,0 km/h (0 Bft) N-NW 337 11,3 C 12,1 C 0,0 km/h (0 Bft)
20.07.2012 20:50 12,0 C 95 % 0,0 l/m 0,0 km/h (0 Bft) NO 45 11,2 C 12,0 C 0,0 km/h (0 Bft)
20.07.2012 20:55 12,0 C 95 % 0,0 l/m 0,0 km/h (0 Bft) N 360 11,2 C 11,9 C 0,0 km/h (0 Bft)
20.07.2012 21:00 11,9 C 95 % 0,0 l/m 0,0 km/h (0 Bft) S-SW 202 11,1 C 11,9 C 0,0 km/h (0 Bft)
20.07.2012 21:05 11,8 C 95 % 0,0 l/m 0,0 km/h (0 Bft) NO 45 11,0 C 11,8 C 0,0 km/h (0 Bft)
20.07.2012 21:10 11,8 C 95 % 0,0 l/m 0,3 km/h (0 Bft) SO 135 11,0 C 11,7 C 1,6 km/h (1 Bft)
20.07.2012 21:15 11,9 C 95 % 0,0 l/m 0,3 km/h (0 Bft) S-SO 157 11,1 C 11,7 C 1,6 km/h (1 Bft)
20.07.2012 21:20 11,9 C 95 % 0,0 l/m 0,3 km/h (0 Bft) S-SO 157 11,1 C 11,7 C 1,9 km/h (1 Bft)
20.07.2012 21:25 11,9 C 95 % 0,0 l/m 0,3 km/h (0 Bft) O-SO 112 11,1 C 11,8 C 2,3 km/h (1 Bft)
20.07.2012 21:30 11,9 C 95 % 0,0 l/m 0,6 km/h (0 Bft) O-SO 112 11,1 C 11,8 C 1,9 km/h (1 Bft)
20.07.2012 21:35 12,0 C 95 % 0,0 l/m 0,6 km/h (0 Bft) SO 135 11,2 C 11,8 C 0,0 km/h (0 Bft)
20.07.2012 21:40 12,0 C 95 % 0,0 l/m 0,5 km/h (0 Bft) S-SO 157 11,2 C 11,9 C 2,3 km/h (1 Bft)
20.07.2012 21:45 12,1 C 95 % 0,0 l/m 1,3 km/h (1 Bft) S 180 11,3 C 11,9 C 2,4 km/h (1 Bft)
20.07.2012 21:50 12,1 C 95 % 0,0 l/m 1,3 km/h (1 Bft) S 180 11,3 C 11,9 C 1,8 km/h (1 Bft)
20.07.2012 21:55 12,1 C 95 % 0,0 l/m 0,6 km/h (0 Bft) S-SO 157 11,3 C 11,9 C 2,4 km/h (1 Bft)
20.07.2012 22:00 12,1 C 95 % 0,0 l/m 1,0 km/h (0 Bft) W-SW 247 11,3 C 11,9 C 2,7 km/h (1 Bft)
20.07.2012 22:05 12,0 C 95 % 0,0 l/m 1,6 km/h (1 Bft) O-SO 112 11,2 C 11,9 C 2,9 km/h (1 Bft)
20.07.2012 22:10 11,8 C 95 % 0,0 l/m 2,3 km/h (1 Bft) O-SO 112 11,0 C 11,8 C 5,0 km/h (1 Bft)
20.07.2012 22:15 11,5 C 95 % 0,0 l/m 2,9 km/h (1 Bft) O 90 10,7 C 11,4 C 0,0 km/h (0 Bft)
20.07.2012 22:20 11,4 C 95 % 0,0 l/m 1,9 km/h (1 Bft) N-NO 22 10,6 C 11,4 C 0,0 km/h (0 Bft)
20.07.2012 22:25 11,3 C 95 % 0,0 l/m 0,2 km/h (0 Bft) N 360 10,5 C 11,3 C 1,6 km/h (1 Bft)
20.07.2012 22:30 11,3 C 95 % 0,7 l/m 0,2 km/h (0 Bft) O-SO 112 10,5 C 11,2 C 0,0 km/h (0 Bft)
20.07.2012 22:35 11,4 C 95 % 0,0 l/m 0,6 km/h (0 Bft) O-SO 112 10,6 C 11,3 C 2,7 km/h (1 Bft)
20.07.2012 22:40 11,4 C 95 % 0,0 l/m 1,4 km/h (1 Bft) SO 135 10,6 C 11,3 C 3,7 km/h (1 Bft)
20.07.2012 22:45 11,3 C 95 % 0,7 l/m 1,8 km/h (1 Bft) O-SO 112 10,5 C 11,1 C 0,0 km/h (0 Bft)
20.07.2012 22:50 11,3 C 95 % 0,0 l/m 1,4 km/h (1 Bft) O 90 10,5 C 11,1 C 2,7 km/h (1 Bft)
20.07.2012 22:55 11,2 C 95 % 0,0 l/m 2,6 km/h (1 Bft) O-NO 67 10,4 C 11,0 C 4,3 km/h (1 Bft)
20.07.2012 23:00 10,9 C 95 % 0,0 l/m 3,4 km/h (1 Bft) O-SO 112 10,1 C 10,8 C 4,2 km/h (1 Bft)
20.07.2012 23:05 10,8 C 95 % 0,0 l/m 2,6 km/h (1 Bft) NO 45 10,0 C 10,7 C 1,6 km/h (1 Bft)
20.07.2012 23:10 10,7 C 95 % 0,7 l/m 1,8 km/h (1 Bft) SO 135 9,9 C 10,6 C 2,1 km/h (1 Bft)
20.07.2012 23:15 10,6 C 95 % 0,0 l/m 1,4 km/h (1 Bft) S-SW 202 9,8 C 10,5 C 2,1 km/h (1 Bft)
20.07.2012 23:20 10,6 C 95 % 0,0 l/m 1,4 km/h (1 Bft) O-SO 112 9,8 C 10,5 C 4,7 km/h (1 Bft)
20.07.2012 23:25 10,5 C 95 % 0,0 l/m 0,8 km/h (0 Bft) O-SO 112 9,7 C 10,4 C 1,6 km/h (1 Bft)
20.07.2012 23:30 10,4 C 95 % 0,0 l/m 0,6 km/h (0 Bft) W 270 9,6 C 10,4 C 0,0 km/h (0 Bft)
20.07.2012 23:35 10,3 C 95 % 0,0 l/m 0,3 km/h (0 Bft) S 180 9,5 C 10,3 C 0,0 km/h (0 Bft)
20.07.2012 23:40 10,3 C 95 % 0,0 l/m 0,5 km/h (0 Bft) N-NO 22 9,5 C 10,2 C 0,0 km/h (0 Bft)
20.07.2012 23:45 10,3 C 95 % 0,0 l/m 0,8 km/h (0 Bft) O-NO 67 9,5 C 10,2 C 2,1 km/h (1 Bft)
20.07.2012 23:50 10,3 C 95 % 0,0 l/m 0,6 km/h (0 Bft) N 360 9,5 C 10,1 C 0,0 km/h (0 Bft)
20.07.2012 23:55 10,2 C 95 % 0,0 l/m 0,2 km/h (0 Bft) SO 135 9,4 C 10,1 C 0,0 km/h (0 Bft)
_ Min-Zeit 23:55 10:25 - 21:05 - - 06:20 23:55 23:55
Minimum _ 10,2 C 51 % - 0,0 km/h (0 Bft) - - 9,3 C 10,1 C 0,0 km/h (0 Bft)
_ Max-Zeit 10:40 23:55 16:05 16:00 - - 09:40 10:30 12:50
Maximum _ 21,6 C 95 % 1,4 l/m 4,7 km/h
SO (1 Bft)
- - 14,2 C 26,3 C 10,6 km/h
W-SW (2 Bft)
Durchschnitt _ 14,3 C 82 % #8,9 l/m 1,2 km/h (1 Bft) S - 11,2 C 14,6 C 1,7 km/h (1 Bft)